^^
Grace C. Lehan Memorial Weather Station Historical Data
Daily Summary for January 19, 2021 Units:  Metric    English   Both
Daily Weekly Monthly Yearly
  High: Low: Average:
Temperature: 6.5 °C -2.6 °C 1.2 °C
Dew Point: -0.1 °C -5 °C -3.6 °C
Humidity: 85% 56% 71%
Wind Speed: 9.7km/h 0km/h 0.8km/h
Wind Gust: 32.2km/h - -
Wind- - WSW
Pressure: 1016.8 hPa 1011.4 hPa -
Precipitation: 0 mm    
 
 
Tabular Data for January 19, 2021
Time Temperature Dew Point Pressure Wind Wind Speed Wind Gust Humidity Rainfall Rate (Hourly) solar
00:04 -0.1 °C -4.6 °C 1011.4 hPa Calm   9.7 km/h 72% 0 mm 0 W/m2
00:09 -0.2 °C -4.5 °C 1011.4 hPa Calm   1.6 km/h 72.7% 0 mm 0 W/m2
00:14 -0.3 °C -4.5 °C 1011.4 hPa Calm   1.6 km/h 73% 0 mm 0 W/m2
00:19 -0.3 °C -4.6 °C 1011.7 hPa WNW 0.2 km/h 3.2 km/h 73% 0 mm 0 W/m2
00:24 -0.3 °C -4.6 °C 1011.7 hPa WNW 0.2 km/h 3.2 km/h 73% 0 mm 0 W/m2
00:29 -0.4 °C -4.5 °C 1011.7 hPa WNW 0.5 km/h 6.4 km/h 73.9% 0 mm 0 W/m2
00:34 -0.4 °C -4.5 °C 1011.7 hPa WNW 0.2 km/h 6.4 km/h 74% 0 mm 0 W/m2
00:39 -0.4 °C -4.5 °C 1011.7 hPa Calm   4.8 km/h 74% 0 mm 0 W/m2
00:44 -0.5 °C -4.6 °C 1011.7 hPa WNW 0.2 km/h 4.8 km/h 74% 0 mm 0 W/m2
00:49 -0.5 °C -4.6 °C 1011.7 hPa WNW 0.2 km/h 4.8 km/h 74.1% 0 mm 0 W/m2
00:54 -0.5 °C -4.4 °C 1011.7 hPa Calm   4.8 km/h 75% 0 mm 0 W/m2
00:59 -0.6 °C -4.5 °C 1011.7 hPa Calm   4.8 km/h 74.8% 0 mm 0 W/m2
01:04 -0.6 °C -4.5 °C 1012.1 hPa Calm   4.8 km/h 75% 0 mm 0 W/m2
01:09 -0.7 °C -4.6 °C 1012.1 hPa Calm     75% 0 mm 0 W/m2
01:14 -0.7 °C -4.6 °C 1012.1 hPa Calm     75% 0 mm 0 W/m2
01:19 -0.7 °C -4.6 °C 1012.4 hPa Calm     75% 0 mm 0 W/m2
01:24 -0.7 °C -4.6 °C 1012.4 hPa Calm     75% 0 mm 0 W/m2
01:29 -0.7 °C -4.6 °C 1012.4 hPa Calm     75% 0 mm 0 W/m2
01:34 -0.7 °C -4.6 °C 1012.4 hPa Calm     75% 0 mm 0 W/m2
01:39 -0.7 °C -4.6 °C 1012.4 hPa Calm     75% 0 mm 0 W/m2
01:44 -0.8 °C -4.6 °C 1012.8 hPa Calm     75.4% 0 mm 0 W/m2
01:49 -0.9 °C -4.6 °C 1012.8 hPa Calm     76% 0 mm 0 W/m2
01:54 -1 °C -4.6 °C 1012.8 hPa Calm     76.6% 0 mm 0 W/m2
01:59 -1.1 °C -4.6 °C 1012.8 hPa Calm     77% 0 mm 0 W/m2
02:04 -1.2 °C -4.7 °C 1012.8 hPa Calm     77.1% 0 mm 0 W/m2
02:09 -1.3 °C -4.7 °C 1012.8 hPa Calm     78% 0 mm 0 W/m2
02:14 -1.4 °C -4.7 °C 1013.1 hPa Calm     78% 0 mm 0 W/m2
02:19 -1.5 °C -4.7 °C 1013.1 hPa Calm     78.9% 0 mm 0 W/m2
02:24 -1.6 °C -4.7 °C 1013.1 hPa WNW 0.2 km/h 3.2 km/h 79% 0 mm 0 W/m2
02:29 -1.6 °C -4.7 °C 1013.1 hPa Calm   3.2 km/h 79.3% 0 mm 0 W/m2
02:34 -1.6 °C -4.6 °C 1013.1 hPa Calm   3.2 km/h 80% 0 mm 0 W/m2
02:39 -1.7 °C -4.7 °C 1013.1 hPa Calm     80% 0 mm 0 W/m2
02:44 -1.7 °C -4.7 °C 1013.1 hPa Calm     80% 0 mm 0 W/m2
02:49 -1.7 °C -4.6 °C 1013.1 hPa Calm     80.8% 0 mm 0 W/m2
02:54 -1.7 °C -4.6 °C 1012.8 hPa Calm     81% 0 mm 0 W/m2
02:59 -1.8 °C -4.6 °C 1012.8 hPa Calm     81% 0 mm 0 W/m2
03:04 -1.8 °C -4.6 °C 1012.8 hPa Calm     81% 0 mm 0 W/m2
03:09 -1.8 °C -4.6 °C 1012.8 hPa Calm     81% 0 mm 0 W/m2
03:14 -1.8 °C -4.7 °C 1012.8 hPa Calm     81% 0 mm 0 W/m2
03:16 -1.9 °C -4.7 °C 1012.8 hPa Calm     81% 0 mm 0 W/m2
03:30 -1.9 °C -4.6 °C 1012.8 hPa Calm     82% 0 mm 0 W/m2
04:04 -2.3 °C -4.8 °C 1013.1 hPa Calm     82.9% 0 mm 0 W/m2
04:09 -2.3 °C -4.8 °C 1013.1 hPa Calm     83% 0 mm 0 W/m2
04:14 -2.4 °C -4.9 °C 1013.1 hPa Calm     83% 0 mm 0 W/m2
04:19 -2.4 °C -4.9 °C 1013.1 hPa Calm     83.1% 0 mm 0 W/m2
04:24 -2.4 °C -4.8 °C 1013.1 hPa Calm     83.9% 0 mm 0 W/m2
04:29 -2.4 °C -4.7 °C 1013.4 hPa Calm     83.9% 0 mm 0 W/m2
04:34 -2.3 °C -4.8 °C 1013.4 hPa Calm     83% 0 mm 0 W/m2
04:39 -2.3 °C -4.8 °C 1013.4 hPa Calm     83% 0 mm 0 W/m2
04:44 -2.2 °C -4.7 °C 1013.4 hPa WNW 0.2 km/h 4.8 km/h 83% 0 mm 0 W/m2
04:49 -2.2 °C -4.7 °C 1013.4 hPa WNW 0.2 km/h 4.8 km/h 83% 0 mm 0 W/m2
04:54 -2.2 °C -4.7 °C 1013.8 hPa WNW 1.3 km/h 6.4 km/h 83% 0 mm 0 W/m2
04:59 -2.2 °C -4.7 °C 1013.8 hPa Calm   6.4 km/h 83% 0 mm 0 W/m2
05:04 -2.2 °C -4.7 °C 1014.1 hPa Calm   6.4 km/h 83% 0 mm 0 W/m2
05:09 -2.2 °C -4.7 °C 1014.1 hPa WNW 0.2 km/h 4.8 km/h 83% 0 mm 0 W/m2
05:14 -2.2 °C -4.7 °C 1014.1 hPa WNW 0.3 km/h 4.8 km/h 83% 0 mm 0 W/m2
05:19 -2.3 °C -4.8 °C 1014.1 hPa Calm   4.8 km/h 83% 0 mm 0 W/m2
05:24 -2.3 °C -4.8 °C 1014.1 hPa Calm   4.8 km/h 83% 0 mm 0 W/m2
05:29 -2.3 °C -4.8 °C 1014.1 hPa Calm   4.8 km/h 83% 0 mm 0 W/m2
05:34 -2.3 °C -4.8 °C 1014.1 hPa Calm   4.8 km/h 83% 0 mm 0 W/m2
05:39 -2.3 °C -4.8 °C 1014.1 hPa WNW 0.8 km/h 4.8 km/h 83% 0 mm 0 W/m2
05:44 -2.3 °C -4.8 °C 1014.4 hPa WNW 0.2 km/h 4.8 km/h 83% 0 mm 0 W/m2
05:49 -2.3 °C -4.8 °C 1014.4 hPa Calm   4.8 km/h 83% 0 mm 0 W/m2
05:54 -2.3 °C -4.8 °C 1014.4 hPa Calm   4.8 km/h 83% 0 mm 0 W/m2
05:59 -2.3 °C -4.8 °C 1014.4 hPa Calm   4.8 km/h 83% 0 mm 0 W/m2
06:04 -2.3 °C -4.8 °C 1014.4 hPa Calm   4.8 km/h 83% 0 mm 0 W/m2
06:09 -2.4 °C -4.8 °C 1014.4 hPa Calm     83% 0 mm 0 W/m2
06:14 -2.4 °C -4.9 °C 1014.4 hPa Calm     83% 0 mm 0 W/m2
06:19 -2.4 °C -4.9 °C 1014.4 hPa Calm     83% 0 mm 0 W/m2
06:24 -2.5 °C -5 °C 1014.4 hPa Calm     83% 0 mm 0 W/m2
06:29 -2.5 °C -4.9 °C 1014.8 hPa Calm     83.7% 0 mm 0 W/m2
06:34 -2.5 °C -4.8 °C 1014.8 hPa Calm     84% 0 mm 0 W/m2
06:39 -2.6 °C -4.9 °C 1014.8 hPa Calm     84% 0 mm 0 W/m2
06:44 -2.6 °C -4.9 °C 1014.8 hPa Calm     83.9% 0 mm 0 W/m2
06:49 -2.6 °C -4.9 °C 1015.1 hPa Calm     84% 0 mm 0 W/m2
06:54 -2.6 °C -4.9 °C 1015.1 hPa Calm     84% 0 mm 0 W/m2
06:59 -2.6 °C -4.9 °C 1015.1 hPa Calm     84% 0 mm 0 W/m2
07:04 -2.6 °C -4.9 °C 1015.1 hPa Calm     84% 0 mm 0 W/m2
07:09 -2.6 °C -4.9 °C 1015.1 hPa Calm     84% 0 mm 0 W/m2
07:14 -2.6 °C -4.9 °C 1015.1 hPa Calm     84% 0 mm 0 W/m2
07:19 -2.6 °C -4.9 °C 1015.5 hPa Calm     84.1% 0 mm 7 W/m2
07:24 -2.6 °C -4.9 °C 1015.5 hPa Calm     84.1% 0 mm 12 W/m2
07:29 -2.6 °C -4.8 °C 1015.5 hPa Calm     84.9% 0 mm 12 W/m2
07:34 -2.6 °C -4.7 °C 1015.5 hPa Calm     85% 0 mm 14 W/m2
07:39 -2.4 °C -4.6 °C 1015.5 hPa Calm     85% 0 mm 18 W/m2
07:44 -2.3 °C -4.5 °C 1015.5 hPa Calm     85% 0 mm 21 W/m2
07:49 -2.3 °C -4.4 °C 1015.5 hPa Calm     85% 0 mm 46 W/m2
07:54 -2.1 °C -4.3 °C 1015.5 hPa Calm     85% 0 mm 51 W/m2
07:59 -1.9 °C -4.1 °C 1015.5 hPa Calm     85% 0 mm 40 W/m2
08:04 -1.4 °C -3.6 °C 1015.5 hPa Calm     85% 0 mm 74 W/m2
08:09 -1.2 °C -3.4 °C 1015.8 hPa Calm     85% 0 mm 74 W/m2
08:14 -0.8 °C -3.3 °C 1015.8 hPa Calm     83.5% 0 mm 46 W/m2
08:19 -0.6 °C -3.2 °C 1015.8 hPa Calm     82.2% 0 mm 128 W/m2
08:24 -0.2 °C -3.1 °C 1015.8 hPa Calm     81.1% 0 mm 162 W/m2
08:29 0.2 °C -2.8 °C 1015.8 hPa Calm     80.1% 0 mm 162 W/m2
08:34 0.5 °C -2.8 °C 1015.8 hPa Calm   1.6 km/h 78.4% 0 mm 162 W/m2
08:39 0.8 °C -2.8 °C 1015.8 hPa WNW 0.8 km/h 4.8 km/h 76.6% 0 mm 134 W/m2
08:44 1.1 °C -2.8 °C 1015.8 hPa Calm   4.8 km/h 75.5% 0 mm 104 W/m2
08:49 1.1 °C -3.1 °C 1015.8 hPa Calm   4.8 km/h 73.7% 0 mm 167 W/m2
08:54 1.1 °C -3.1 °C 1015.8 hPa Calm   4.8 km/h 74% 0 mm 142 W/m2
08:59 1.1 °C -3 °C 1015.8 hPa Calm   4.8 km/h 74% 0 mm 162 W/m2
09:04 1.2 °C -3 °C 1015.8 hPa WNW 0.2 km/h 4.8 km/h 73.7% 0 mm 93 W/m2
09:09 1.1 °C -3.2 °C 1016.1 hPa Calm   1.6 km/h 73.4% 0 mm 69 W/m2
09:14 0.9 °C -3.2 °C 1016.1 hPa Calm   1.6 km/h 74% 0 mm 69 W/m2
09:19 0.8 °C -3.2 °C 1016.1 hPa Calm   1.6 km/h 74.6% 0 mm 155 W/m2
09:20 0.8 °C -3.2 °C 1016.1 hPa Calm   1.6 km/h 75% 0 mm 93 W/m2
09:30 0.9 °C -2.8 °C 1016.1 hPa Calm   3.2 km/h 76% 0 mm 97 W/m2
10:00 1.9 °C -1.9 °C 1015.8 hPa Calm     76% 0 mm 118 W/m2
10:30 2.9 °C -0.9 °C 1015.8 hPa Calm   1.6 km/h 76% 0 mm 191 W/m2
11:00 5.2 °C -0.1 °C 1015.1 hPa Calm   9.7 km/h 69% 0 mm 301 W/m2
11:30 6.5 °C -0.7 °C 1014.8 hPa WSW 3.2 km/h 16.1 km/h 60% 0 mm 201 W/m2
12:09 5.7 °C -1.2 °C 1014.8 hPa WSW 0.5 km/h 16.1 km/h 61.3% 0 mm 201 W/m2
12:14 5.7 °C -1.2 °C 1014.1 hPa WSW 3.2 km/h 14.5 km/h 61.4% 0 mm 176 W/m2
12:19 5.7 °C -1.3 °C 1014.1 hPa West 3.5 km/h 14.5 km/h 61% 0 mm 253 W/m2
12:24 5.7 °C -1.3 °C 1014.1 hPa WNW 5.6 km/h 19.3 km/h 60.6% 0 mm 253 W/m2
12:29 5.8 °C -1.5 °C 1014.1 hPa West 1.3 km/h 19.3 km/h 59.5% 0 mm 188 W/m2
12:34 5.8 °C -1.3 °C 1013.8 hPa WSW 1.9 km/h 19.3 km/h 60% 0 mm 211 W/m2
12:39 5.8 °C -1.3 °C 1013.8 hPa SW 2.4 km/h 9.7 km/h 60% 0 mm 185 W/m2
12:44 5.8 °C -1.4 °C 1013.8 hPa WSW 5.1 km/h 19.3 km/h 59.9% 0 mm 309 W/m2
12:49 5.8 °C -1.6 °C 1013.8 hPa WSW 1.3 km/h 19.3 km/h 59.1% 0 mm 309 W/m2
12:54 5.9 °C -1.3 °C 1013.8 hPa West 0.6 km/h 19.3 km/h 59.6% 0 mm 250 W/m2
12:59 6.1 °C -1.3 °C 1013.8 hPa West 1.9 km/h 19.3 km/h 59.1% 0 mm 223 W/m2
13:04 6.2 °C -1.4 °C 1013.8 hPa SSW 1.4 km/h 19.3 km/h 58.3% 0 mm 223 W/m2
13:09 6.2 °C -1.6 °C 1013.4 hPa SW 1.9 km/h 8 km/h 57.4% 0 mm 167 W/m2
13:14 6.1 °C -1.9 °C 1013.8 hPa West 2.7 km/h 11.3 km/h 56.6% 0 mm 127 W/m2
13:19 5.9 °C -2 °C 1013.4 hPa WSW 2.3 km/h 11.3 km/h 56.5% 0 mm 149 W/m2
13:24 5.8 °C -2 °C 1013.8 hPa SW 1.3 km/h 11.3 km/h 57% 0 mm 134 W/m2
13:29 5.8 °C -1.9 °C 1013.8 hPa WSW 2.1 km/h 11.3 km/h 57.6% 0 mm 121 W/m2
13:34 5.7 °C -1.7 °C 1013.8 hPa WSW 1.4 km/h 14.5 km/h 58.9% 0 mm 181 W/m2
13:39 5.7 °C -1.9 °C 1013.4 hPa SW 3.5 km/h 14.5 km/h 58.1% 0 mm 148 W/m2
13:44 5.8 °C -1.6 °C 1013.4 hPa SW 2.4 km/h 17.7 km/h 59% 0 mm 178 W/m2
13:49 5.9 °C -1.9 °C 1013.4 hPa SW 7.2 km/h 20.9 km/h 56.8% 0 mm 178 W/m2
13:54 5.9 °C -2.2 °C 1013.4 hPa SW 3.7 km/h 20.9 km/h 56% 0 mm 130 W/m2
13:59 5.9 °C -2 °C 1013.8 hPa WSW 2.1 km/h 20.9 km/h 56.8% 0 mm 134 W/m2
14:04 5.8 °C -1.9 °C 1013.8 hPa WSW 5 km/h 20.9 km/h 57.3% 0 mm 137 W/m2
14:09 5.8 °C -1.9 °C 1013.8 hPa West 6.8 km/h 20.9 km/h 57.6% 0 mm 151 W/m2
14:14 5.8 °C -1.9 °C 1013.8 hPa West 4.3 km/h 20.9 km/h 57.7% 0 mm 309 W/m2
14:19 5.9 °C -1.7 °C 1013.8 hPa WNW 5.5 km/h 20.9 km/h 58.3% 0 mm 165 W/m2
14:24 5.9 °C -1.7 °C 1013.8 hPa West 4 km/h 20.9 km/h 58% 0 mm 209 W/m2
14:29 5.9 °C -1.7 °C 1013.8 hPa WNW 5 km/h 20.9 km/h 57.8% 0 mm 279 W/m2
14:34 6.1 °C -1.7 °C 1013.8 hPa West 3.7 km/h 20.9 km/h 57.8% 0 mm 141 W/m2
14:39 6.1 °C -1.9 °C 1013.8 hPa WSW 4.7 km/h 22.5 km/h 56.7% 0 mm 137 W/m2
14:44 5.9 °C -1.9 °C 1014.1 hPa SW 6.8 km/h 22.5 km/h 57.1% 0 mm 125 W/m2
14:49 5.7 °C -1.8 °C 1014.1 hPa WSW 3.7 km/h 22.5 km/h 58.6% 0 mm 111 W/m2
14:54 5.6 °C -1.8 °C 1014.1 hPa WSW 4.3 km/h 22.5 km/h 58.9% 0 mm 100 W/m2
14:59 5.4 °C -2.2 °C 1014.1 hPa WSW 9.7 km/h 32.2 km/h 58.2% 0 mm 98 W/m2
15:04 5.2 °C -2.2 °C 1014.4 hPa WNW 5.5 km/h 32.2 km/h 59.1% 0 mm 88 W/m2
15:09 5.1 °C -2.1 °C 1014.4 hPa West 7.1 km/h 19.3 km/h 60% 0 mm 69 W/m2
15:14 4.9 °C -2.2 °C 1014.4 hPa WNW 6.6 km/h 19.3 km/h 60% 0 mm 56 W/m2
15:19 4.8 °C -2.3 °C 1014.4 hPa West 6.9 km/h 19.3 km/h 60% 0 mm 54 W/m2
15:24 4.7 °C -2.3 °C 1014.4 hPa West 6.3 km/h 19.3 km/h 60.5% 0 mm 54 W/m2
15:29 4.6 °C -2.3 °C 1014.8 hPa West 3.2 km/h 19.3 km/h 61% 0 mm 49 W/m2
15:34 4.6 °C -2.3 °C 1014.8 hPa WSW 3.2 km/h 19.3 km/h 61% 0 mm 40 W/m2
15:39 4.4 °C -2.4 °C 1014.8 hPa West 6 km/h 27.4 km/h 61% 0 mm 35 W/m2
15:44 4.3 °C -2.5 °C 1014.8 hPa WNW 4.5 km/h 27.4 km/h 61% 0 mm 33 W/m2
15:49 4.3 °C -2.4 °C 1015.1 hPa West 2.4 km/h 27.4 km/h 61.9% 0 mm 33 W/m2
15:54 4.2 °C -2.4 °C 1015.1 hPa West 1.8 km/h 27.4 km/h 62% 0 mm 28 W/m2
15:59 4.2 °C -2.4 °C 1015.1 hPa West 1.1 km/h 27.4 km/h 62% 0 mm 25 W/m2
16:00 4.1 °C -2.5 °C 1015.1 hPa Calm   27.4 km/h 62% 0 mm 23 W/m2
16:09 4.1 °C -2.5 °C 1015.1 hPa West 0.6 km/h 4.8 km/h 62.4% 0 mm 19 W/m2
16:14 4 °C -2.4 °C 1015.1 hPa West 0.6 km/h 6.4 km/h 63% 0 mm 18 W/m2
16:19 4 °C -2.5 °C 1015.1 hPa WSW 0.8 km/h 6.4 km/h 62.5% 0 mm 14 W/m2
16:24 3.9 °C -2.6 °C 1015.1 hPa West 1 km/h 6.4 km/h 62.6% 0 mm 12 W/m2
16:29 3.9 °C -2.6 °C 1015.1 hPa West 1 km/h 8 km/h 62.6% 0 mm 12 W/m2
16:34 3.8 °C -2.6 °C 1015.1 hPa West 0.3 km/h 8 km/h 63% 0 mm 11 W/m2
16:39 3.8 °C -2.6 °C 1015.5 hPa West 0.2 km/h 4.8 km/h 63% 0 mm 9 W/m2
16:44 3.8 °C -2.4 °C 1015.5 hPa Calm   4.8 km/h 63.5% 0 mm 7 W/m2
16:49 3.8 °C -2.6 °C 1015.5 hPa West 1.4 km/h 6.4 km/h 63% 0 mm 5 W/m2
16:54 3.7 °C -2.8 °C 1015.5 hPa WSW 2.9 km/h 19.3 km/h 62.5% 0 mm 0 W/m2
16:59 3.7 °C -3.1 °C 1015.8 hPa WSW 2.1 km/h 19.3 km/h 61.2% 0 mm 0 W/m2
17:04 3.7 °C -3.2 °C 1015.8 hPa WSW 1.1 km/h 19.3 km/h 61% 0 mm 0 W/m2
17:09 3.6 °C -3.3 °C 1015.8 hPa WSW 2.6 km/h 11.3 km/h 60.8% 0 mm 0 W/m2
17:14 3.5 °C -3.5 °C 1015.8 hPa West 1.9 km/h 11.3 km/h 60% 0 mm 0 W/m2
17:19 3.4 °C -3.6 °C 1015.8 hPa WSW 0.5 km/h 11.3 km/h 60% 0 mm 0 W/m2
17:24 3.3 °C -3.7 °C 1015.8 hPa WSW 0.2 km/h 11.3 km/h 60% 0 mm 0 W/m2
17:29 3.2 °C -3.6 °C 1016.1 hPa Calm   11.3 km/h 60.8% 0 mm 0 W/m2
17:34 3.1 °C -3.7 °C 1016.1 hPa WSW 0.3 km/h 11.3 km/h 61% 0 mm 0 W/m2
17:39 3 °C -3.8 °C 1016.1 hPa Calm   3.2 km/h 61% 0 mm 0 W/m2
17:44 2.9 °C -3.9 °C 1016.1 hPa WSW 0.3 km/h 4.8 km/h 61% 0 mm 0 W/m2
17:49 2.8 °C -3.8 °C 1016.1 hPa WSW 0.3 km/h 4.8 km/h 61.8% 0 mm 0 W/m2
17:54 2.7 °C -3.9 °C 1016.1 hPa WSW 0.2 km/h 4.8 km/h 62% 0 mm 0 W/m2
17:59 2.6 °C -4 °C 1016.5 hPa Calm   4.8 km/h 62% 0 mm 0 W/m2
18:04 2.4 °C -3.9 °C 1016.5 hPa WSW 0.5 km/h 4.8 km/h 62.9% 0 mm 0 W/m2
18:09 2.4 °C -3.9 °C 1016.5 hPa Calm   4.8 km/h 63% 0 mm 0 W/m2
18:14 2.3 °C -4 °C 1016.5 hPa WSW 0.5 km/h 4.8 km/h 63% 0 mm 0 W/m2
18:19 2.3 °C -4 °C 1016.5 hPa WSW 0.2 km/h 4.8 km/h 63% 0 mm 0 W/m2
18:24 2.2 °C -4.1 °C 1016.5 hPa WSW 0.2 km/h 4.8 km/h 63% 0 mm 0 W/m2
18:29 2.2 °C -4.1 °C 1016.8 hPa Calm   4.8 km/h 63% 0 mm 0 W/m2
18:34 2.2 °C -4.1 °C 1016.8 hPa Calm   4.8 km/h 63.1% 0 mm 0 W/m2
18:39 2.1 °C -4.1 °C 1016.8 hPa Calm     63.8% 0 mm 0 W/m2
18:44 2 °C -4.2 °C 1016.5 hPa Calm     63.5% 0 mm 0 W/m2
18:49 1.9 °C -4.1 °C 1016.8 hPa Calm     64% 0 mm 0 W/m2
18:54 1.9 °C -4.2 °C 1016.5 hPa Calm     64% 0 mm 0 W/m2
18:59 1.8 °C -4.2 °C 1016.8 hPa Calm     64.5% 0 mm 0 W/m2
19:04 1.8 °C -4.1 °C 1016.8 hPa Calm   1.6 km/h 65% 0 mm 0 W/m2
19:09 1.8 °C -3.8 °C 1016.8 hPa WSW 0.2 km/h 3.2 km/h 66% 0 mm 0 W/m2
19:14 1.8 °C -3.9 °C 1016.8 hPa WSW 1 km/h 4.8 km/h 65.9% 0 mm 0 W/m2
19:19 1.9 °C -3.8 °C 1016.8 hPa WSW 0.5 km/h 4.8 km/h 66% 0 mm 0 W/m2
19:24 1.9 °C -3.7 °C 1016.8 hPa WSW 0.2 km/h 4.8 km/h 66% 0 mm 0 W/m2
19:29 1.9 °C -3.8 °C 1016.8 hPa WSW 0.3 km/h 4.8 km/h 66% 0 mm 0 W/m2
19:34 1.8 °C -3.8 °C 1016.8 hPa WSW 0.6 km/h 4.8 km/h 66% 0 mm 0 W/m2
19:39 1.8 °C -3.8 °C 1016.8 hPa WSW 0.3 km/h 3.2 km/h 66% 0 mm 0 W/m2
19:44 1.8 °C -3.7 °C 1016.5 hPa Calm   3.2 km/h 67% 0 mm 0 W/m2
19:49 1.8 °C -3.7 °C 1016.5 hPa WSW 0.3 km/h 3.2 km/h 67% 0 mm 0 W/m2
19:54 1.8 °C -3.7 °C 1016.5 hPa WSW 0.2 km/h 3.2 km/h 67% 0 mm 0 W/m2
19:59 1.8 °C -3.6 °C 1016.5 hPa WSW 0.5 km/h 4.8 km/h 67.7% 0 mm 0 W/m2
20:00 1.8 °C -3.5 °C 1016.5 hPa Calm   4.8 km/h 68% 0 mm 0 W/m2
20:09 1.8 °C -3.5 °C 1016.5 hPa Calm   1.6 km/h 68% 0 mm 0 W/m2
20:14 1.7 °C -3.6 °C 1016.5 hPa Calm   3.2 km/h 68% 0 mm 0 W/m2
20:19 1.7 °C -3.6 °C 1016.5 hPa Calm   3.2 km/h 68% 0 mm 0 W/m2
20:24 1.6 °C -3.6 °C 1016.5 hPa WSW 0.2 km/h 4.8 km/h 68.4% 0 mm 0 W/m2
20:29 1.5 °C -3.6 °C 1016.5 hPa Calm   4.8 km/h 69% 0 mm 0 W/m2
20:34 1.4 °C -3.7 °C 1016.5 hPa WSW 0.2 km/h 4.8 km/h 69.2% 0 mm 0 W/m2
20:39 1.3 °C -3.6 °C 1016.5 hPa WSW 0.2 km/h 3.2 km/h 70% 0 mm 0 W/m2
20:44 1.2 °C -3.7 °C 1016.5 hPa WSW 0.2 km/h 3.2 km/h 70% 0 mm 0 W/m2
20:49 1.2 °C -3.7 °C 1016.5 hPa WSW 0.3 km/h 4.8 km/h 70.3% 0 mm 0 W/m2
20:54 1.2 °C -3.5 °C 1016.1 hPa WSW 0.2 km/h 4.8 km/h 71% 0 mm 0 W/m2
20:59 1.2 °C -3.4 °C 1016.5 hPa Calm   4.8 km/h 71% 0 mm 0 W/m2
21:04 1.3 °C -3.4 °C 1016.5 hPa Calm   4.8 km/h 71% 0 mm 0 W/m2
21:09 1.3 °C -3.4 °C 1016.5 hPa Calm     71% 0 mm 0 W/m2
21:14 1.3 °C -3.4 °C 1016.5 hPa WSW 0.5 km/h 4.8 km/h 71% 0 mm 0 W/m2
21:19 1.3 °C -3.4 °C 1016.5 hPa WSW 0.5 km/h 4.8 km/h 71% 0 mm 0 W/m2
21:24 1.3 °C -3.4 °C 1016.5 hPa WSW 0.3 km/h 4.8 km/h 71% 0 mm 0 W/m2
21:29 1.3 °C -3.4 °C 1016.5 hPa WSW 0.5 km/h 4.8 km/h 71% 0 mm 0 W/m2
21:34 1.3 °C -3.4 °C 1016.5 hPa WSW 0.8 km/h 4.8 km/h 71% 0 mm 0 W/m2
21:39 1.2 °C -3.4 °C 1016.5 hPa WSW 0.2 km/h 4.8 km/h 71% 0 mm 0 W/m2
21:44 1.2 °C -3.5 °C 1016.1 hPa Calm   4.8 km/h 71% 0 mm 0 W/m2
21:49 1.1 °C -3.6 °C 1016.5 hPa Calm   4.8 km/h 71% 0 mm 0 W/m2
21:54 1.1 °C -3.6 °C 1016.5 hPa Calm   4.8 km/h 71% 0 mm 0 W/m2
21:59 0.9 °C -3.7 °C 1016.5 hPa WSW 0.2 km/h 4.8 km/h 71% 0 mm 0 W/m2
22:04 0.9 °C -3.8 °C 1016.1 hPa WSW 0.2 km/h 4.8 km/h 71% 0 mm 0 W/m2
22:09 0.8 °C -3.7 °C 1016.1 hPa Calm   3.2 km/h 71.9% 0 mm 0 W/m2
22:14 0.7 °C -3.7 °C 1016.1 hPa Calm   3.2 km/h 72% 0 mm 0 W/m2
22:19 0.7 °C -3.8 °C 1016.1 hPa Calm   3.2 km/h 72% 0 mm 0 W/m2
22:24 0.6 °C -3.8 °C 1016.1 hPa Calm   3.2 km/h 72.9% 0 mm 0 W/m2
22:29 0.4 °C -3.8 °C 1016.1 hPa Calm   3.2 km/h 73% 0 mm 0 W/m2
22:34 0.2 °C -3.9 °C 1016.1 hPa Calm   3.2 km/h 73.3% 0 mm 0 W/m2
22:39 0.1 °C -4 °C 1015.8 hPa Calm     74% 0 mm 0 W/m2
22:44 -0.1 °C -3.9 °C 1015.5 hPa Calm     74.9% 0 mm 0 W/m2
22:49 -0.1 °C -4 °C 1015.5 hPa Calm     75% 0 mm 0 W/m2
22:54 -0.1 °C -4 °C 1015.5 hPa Calm     75% 0 mm 0 W/m2
22:59 -0.1 °C -4 °C 1015.1 hPa Calm     75% 0 mm 0 W/m2
23:04 -0.2 °C -4.1 °C 1015.1 hPa Calm     75% 0 mm 0 W/m2
23:09 -0.2 °C -3.9 °C 1015.5 hPa Calm     75.8% 0 mm 0 W/m2
23:14 -0.2 °C -3.9 °C 1015.1 hPa Calm     76% 0 mm 0 W/m2
23:19 -0.2 °C -4 °C 1015.5 hPa WSW 0.2 km/h 1.6 km/h 75.3% 0 mm 0 W/m2
23:24 -0.2 °C -3.8 °C 1015.5 hPa Calm   1.6 km/h 76% 0 mm 0 W/m2
23:29 -0.2 °C -3.9 °C 1015.5 hPa Calm   1.6 km/h 76% 0 mm 0 W/m2
23:34 -0.2 °C -3.9 °C 1015.5 hPa Calm   1.6 km/h 76% 0 mm 0 W/m2
23:39 -0.2 °C -3.9 °C 1015.5 hPa Calm     76% 0 mm 0 W/m2
23:44 -0.2 °C -3.9 °C 1015.1 hPa Calm     76% 0 mm 0 W/m2
23:49 -0.1 °C -3.8 °C 1014.8 hPa Calm     76% 0 mm 0 W/m2
23:54 -0.1 °C -3.9 °C 1015.1 hPa Calm     75.1% 0 mm 0 W/m2
23:59 0 °C -3.9 °C 1014.8 hPa Calm     75% 0 mm 0 W/m2
Hartford County Weather
Compliments of Weather Underground - 4 mb